• Join FlightAware (Why Join?)
  • Login
  • US Flag 
01:11PM EST


 

Airport Tracker/Info


-or-


 

Live Flight TrackerFlight Track Log ✈ N121JM ✈ 24-Sep-2013 ✈ KTEB - KILG

Flight Track Log - Related Links

Times and Time Zones

All times are in EDT time to prevent confusion due to time zone crossing. See the N121JM flight status page for this flight to view local times or setup timezone preferences in your user account.

Time Position Orientation Groundspeed Altitude Reporting Facility
EDT Latitude Longitude Course Direction KTS MPH feet Rate Location/Type
07:39PM 40.8701 -74.0460 129° Southeast 176 203 1,400  Level FlightAware ADS-B
07:40PM 40.8772 -74.0389 37° Northeast 170 196 1,700 1,560 Climbing FlightAware ADS-B
07:40PM 40.8823 -74.0341 35° Northeast 168 193 1,900 1,380 Climbing FlightAware ADS-B
07:40PM 40.8858 -74.0311 33° Northeast 167 192 2,000 1,200 Climbing FlightAware ADS-B
07:40PM 40.8889 -74.0291 26° Northeast 166 191 2,100 1,200 Climbing FlightAware ADS-B
07:40PM 40.8930 -74.0273 18° North 168 193 2,200 -360 Climbing FlightAware ADS-B
07:40PM 40.9034 -74.0296 351° North 175 201 2,000 -660 Descending FlightAware ADS-B
07:40PM 40.9064 -74.0331 319° Northwest 175 201 2,000  Level FlightAware ADS-B
07:40PM 40.9083 -74.0368 304° West 175 201 2,000  Level FlightAware ADS-B
07:40PM 40.9102 -74.0459 285° West 177 204 2,000  Level FlightAware ADS-B
07:41PM 40.9101 -74.0494 268° West 177 204 2,000  Level FlightAware ADS-B
07:41PM 40.9097 -74.0532 262° West 178 205 2,000  Level FlightAware ADS-B
07:41PM 40.9090 -74.0566 255° West 178 205 2,000  Level FlightAware ADS-B
07:41PM 40.9072 -74.0641 252° West 180 207 2,000 540 Level FlightAware ADS-B
07:41PM 40.9030 -74.0801 251° West 184 212 2,200 1,080 Climbing FlightAware ADS-B
07:41PM 40.8974 -74.0981 248° West 182 209 2,600 1,440 Climbing FlightAware ADS-B
07:42PM 40.8926 -74.1143 249° West 183 211 3,000 1,620 Climbing FlightAware ADS-B
07:42PM 40.8864 -74.1370 250° West 200 230 3,600 1,620 Climbing FlightAware ADS-B
07:42PM 40.8814 -74.1559 251° West 213 245 4,000 1,680 Climbing FlightAware ADS-B
07:42PM 40.8760 -74.1760 250° West 227 261 4,500 1,680 Climbing FlightAware ADS-B
07:43PM 40.8716 -74.1922 250° West 234 269 4,800 1,500 Climbing FlightAware ADS-B
07:43PM 40.8478 -74.2361 234° Southwest 235 270 5,700 1,380 Climbing FlightAware ADS-B
07:43PM 40.8451 -74.2406 232° Southwest 274 315 5,700 1,320 Level FlightAware ADS-B
07:44PM 40.8341 -74.2607 234° Southwest 286 329 6,100 2,040 Climbing FlightAware ADS-B
07:44PM 40.8191 -74.2911 237° Southwest 289 333 6,900 1,440 Climbing FlightAware ADS-B
07:44PM 40.8071 -74.3151 237° Southwest 292 336 7,000 120 Climbing FlightAware ADS-B
07:44PM 40.7927 -74.3419 235° Southwest 293 337 7,000  Level FlightAware ADS-B
07:45PM 40.7629 -74.3989 235° Southwest 295 339 7,000  Level FlightAware ADS-B
07:46PM 40.7392 -74.4445 236° Southwest 294 338 7,000  Level FlightAware ADS-B
07:46PM 40.7227 -74.4758 235° Southwest 297 342 7,000  Level FlightAware ADS-B
07:47PM 40.6953 -74.5282 235° Southwest 296 341 7,000 180 Level FlightAware ADS-B
07:47PM 40.6800 -74.5573 235° Southwest 297 342 7,200 780 Climbing FlightAware ADS-B
07:47PM 40.6500 -74.6000 263° West 293 337 7,700 480 Climbing New York TRACON
07:49PM 40.6000 -74.7000 237° Southwest 288 331 8,000 60 Climbing New York TRACON
07:50PM 40.5667 -74.9000 258° West 287 330 8,000  Level Philadelphia TRACON
07:52PM 40.5500 -75.0333 261° West 285 328 8,000 -60 Level Philadelphia TRACON
07:53PM 40.5497 -74.9039 263° West  Level FlightAware Approximate
07:53PM 40.5500 -75.1000 270° West 278 320 7,900  Level Philadelphia TRACON
07:53PM 40.5333 -75.2000 258° West 283 326 7,400 -480 Descending Philadelphia TRACON
07:55PM 40.5000 -75.3000 246° West 287 330 7,000 -240 Descending Philadelphia TRACON
07:56PM 40.4333 -75.3500 210° Southwest 298 343 7,000  Level Philadelphia TRACON
07:57PM 40.3500 -75.4000 205° Southwest 297 342 7,000 -480 Level Philadelphia TRACON
07:58PM 40.2833 -75.4500 210° Southwest 297 342 6,100 -960 Descending Philadelphia TRACON
07:59PM 40.2000 -75.5000 205° Southwest 290 334 5,100 -540 Descending Philadelphia TRACON
08:00PM 40.1167 -75.5500 205° Southwest 286 329 5,000 -360 Descending Philadelphia TRACON
08:01PM 40.0500 -75.5833 201° Southwest 285 328 4,400 -840 Descending Philadelphia TRACON
08:02PM 39.9833 -75.6333 210° Southwest 286 329 3,400 -720 Descending Philadelphia TRACON
08:03PM 39.9000 -75.6333 180° South 269 310 3,000 -240 Descending Philadelphia TRACON
08:04PM 39.8333 -75.6167 169° South 252 290 3,000 -360 Level Philadelphia TRACON
08:05PM 39.7833 -75.6000 166° South 179 206 2,400 -1,020 Descending Philadelphia TRACON
08:06PM 39.7500 -75.6000 180° South 162 186 1,100 -1,320 Descending Philadelphia TRACON
08:08PM 39.6787 -75.6066 180° South  Level Estimated
08:15PM 39.6787 -75.6066 180° South  Level Estimated